Aérodrome :
LOGIN :

S'inscrire | Disclaimer

   EN    FR    IT 

 










Légende :    VFR   VFR Marginal   IFR   IFR Intensif   IFR Très Intensif
Visi : 
Plafond : 
>= 8 km
>= 3000ft
5 à 8 km
1000 à 3000 ft
1500m à 5 km
500 à 1000 ft
800 à 1500m
200 à 500 ft
< 800m
< 200 ft
Symboles :   Orages  Brouillard  Fortes neiges  Fortes précipitations  Vent > 20 kt
SIGMETs :   Divers  Orages  Givrage  Turbulence  Onde Orograph.  Cendres Volcan.






- Altitude de l'aérodrome : 220 ft
- Code IATA : CWL


EGFF - Cardiff Rhoose

DERNIER METAR :
  • 100350Z AUTO 17011KT 9999 BKN026 07/05 Q1020

METARs EXPIRÉS :
  • 100320Z AUTO 17005KT 140V200 9999 BKN025 07/04 Q1021
  • 100250Z AUTO 18007KT 9999 BKN026 07/05 Q1021
  • 100220Z AUTO 19005KT 9999 NCD 07/04 Q1022
  • 100150Z AUTO 21007KT 9999 NCD 06/04 Q1022
  • 100120Z AUTO 20005KT 9999 NCD 06/04 Q1023

TAF TAF EGFF
Valide du 10 à 00h jusqu'au 11 à 00h UTC


092300Z 1000/1024 VRB03KT CAVOK
BECMG 1000/1003 18010KT
PROB30
TEMPO 1003/1006 18016G26KT BKN040
BECMG 1006/1009 19020KT FEW010 BKN030
BECMG 1009/1012 20025G35KT
TEMPO 1009/1017 4500 RA BKN010
PROB40
TEMPO 1014/1017 20030G45KT 1200 +RA BKN004
BECMG 1017/1019 27022G32KT FEW008 SCT030
TEMPO 1017/1019 4500 RA BKN010
BECMG 1019/1022 26012KT
ATIS : +44 1446 729 319



MET'MAP, la Météo Aéronautique d'un coup d'oeil ! - Copyright ORBIFLY Décembre 2007 - Disclaimer

ORBIFLY MET'MAP TEAM :

Programmation & Développement : Alexandra Zaïnal
Sur une idée originale de : Baudouin d'Aumeries
Assistance à la programmation : Marc-Olivier Méhu
Soutien technique & logistique : Manuel Goepfert

Contact : metmap@orbifly.com




SOURCES & CREDITS :

   NOAA